Aérodrome :
LOGIN :

S'inscrire | Disclaimer

   EN    FR    IT 

 










Légende :    VFR   VFR Marginal   IFR   IFR Intensif   IFR Très Intensif
Visi : 
Plafond : 
>= 8 km
>= 3000ft
5 à 8 km
1000 à 3000 ft
1500m à 5 km
500 à 1000 ft
800 à 1500m
200 à 500 ft
< 800m
< 200 ft
Symboles :   Orages  Brouillard  Fortes neiges  Fortes précipitations  Vent > 20 kt
SIGMETs :   Divers  Orages  Givrage  Turbulence  Onde Orograph.  Cendres Volcan.






- Altitude de l'aérodrome : 137 ft


LIPS - Istrana AFB Treviso

DERNIER METAR :
  • 171155Z 36002KT 9999 SCT035 16/07 Q1004 RMK OVC BKN200 VIS MIN 9999 WIND THR26 02002KT WIND THR08 12003KT BLU

METARs EXPIRÉS :
  • 171055Z 13003KT 9999 FEW030 15/08 Q1004
  • 170955Z 17003KT 9999 FEW040 14/07 Q1005 RMK BKN SCT120 VIS MIN 9999 WIND THR26 00000KT WIND THR08 00000KT BLU
  • 170855Z 24003KT CAVOK 12/06 Q1005 RMK BKN SCT120 BKN200 VIS MIN 9999 WIND THR26 00000KT WIND THR08 00000KT BLU
  • 170755Z 00000KT CAVOK 12/07 Q1005 RMK BKN SCT120 SCT200 VIS MIN 9999 WIND THR26 00000KT WIND THR08 00000KT BLU

TAF TAF LIPS
Valide du 17 à 12h jusqu'au 17 à 21h UTC


171100Z 1712/1721 VRB03KT 9999 SCT030 SCT080
TEMPO 1712/1716 04012KT 5000 TSRA FEW020CB BKN040



MET'MAP, la Météo Aéronautique d'un coup d'oeil ! - Copyright ORBIFLY Décembre 2007 - Disclaimer

ORBIFLY MET'MAP TEAM :

Programmation & Développement : Alexandra Zaïnal
Sur une idée originale de : Baudouin d'Aumeries
Soutien technique & logistique : Manuel Goepfert
Assistance : Marc-Olivier Méhu




SOURCES & CREDITS :

   NOAA